createdAt,value
2017-09-11T00:02:26.936Z,3.00
2017-09-11T00:04:55.941Z,2.10
2017-09-11T00:07:24.378Z,2.70
2017-09-11T00:09:52.738Z,3.53
2017-09-11T00:12:21.918Z,3.43
2017-09-11T00:14:51.055Z,2.70
2017-09-11T00:17:19.490Z,2.20
2017-09-11T00:19:48.978Z,2.67
2017-09-11T00:23:00.990Z,2.90
2017-09-11T00:25:29.558Z,2.90
2017-09-11T00:27:57.947Z,3.20
2017-09-11T00:30:26.328Z,3.63
2017-09-11T00:32:55.019Z,3.27
2017-09-11T00:35:24.223Z,2.90
2017-09-11T00:37:53.356Z,3.13
2017-09-11T00:40:22.088Z,3.77
2017-09-11T00:42:50.451Z,3.37
2017-09-11T00:45:18.825Z,2.93
2017-09-11T00:47:47.636Z,3.03
2017-09-11T00:50:16.032Z,2.87
2017-09-11T00:52:45.289Z,2.60
2017-09-11T00:55:13.993Z,2.17
2017-09-11T00:57:42.443Z,2.47
2017-09-11T01:00:10.875Z,2.27
2017-09-11T01:02:40.075Z,1.87
2017-09-11T01:05:09.277Z,2.13
2017-09-11T01:07:38.423Z,1.80
2017-09-11T01:10:06.839Z,2.13
2017-09-11T01:12:36.046Z,2.00
2017-09-11T01:15:05.246Z,1.90
2017-09-11T01:17:34.857Z,2.20
2017-09-11T01:20:04.063Z,1.70
2017-09-11T01:22:33.283Z,2.03
2017-09-11T01:25:02.010Z,1.77
2017-09-11T01:27:30.411Z,1.83
2017-09-11T01:29:58.884Z,2.07
2017-09-11T01:32:28.214Z,1.30
2017-09-11T01:34:57.440Z,2.00
2017-09-11T01:37:25.812Z,1.90
2017-09-11T01:39:54.564Z,1.70
2017-09-11T01:42:23.793Z,1.90
2017-09-11T01:44:52.145Z,2.30
2017-09-11T01:47:21.540Z,2.00
2017-09-11T01:49:50.690Z,1.63
2017-09-11T01:52:19.082Z,2.53
2017-09-11T01:54:47.550Z,1.60
2017-09-11T01:57:16.252Z,1.80
2017-09-11T01:59:44.631Z,1.57
2017-09-11T02:02:13.242Z,1.77
2017-09-11T02:04:41.626Z,1.30
2017-09-11T02:07:10.785Z,1.60
2017-09-11T02:09:40.062Z,1.93
2017-09-11T02:12:08.430Z,1.53
2017-09-11T02:14:36.813Z,1.47
2017-09-11T02:17:05.368Z,1.23
2017-09-11T02:19:33.851Z,1.73
2017-09-11T02:22:03.041Z,1.20
2017-09-11T02:24:32.233Z,1.57
2017-09-11T02:27:01.397Z,1.50
2017-09-11T02:29:29.758Z,1.17
2017-09-11T02:31:58.386Z,1.30
2017-09-11T02:34:26.809Z,1.00
2017-09-11T02:36:55.179Z,0.97
2017-09-11T02:39:23.651Z,2.03
2017-09-11T02:41:52.042Z,1.07
2017-09-11T02:44:20.611Z,1.30
2017-09-11T02:46:49.152Z,0.60
2017-09-11T02:49:18.311Z,1.53
2017-09-11T02:51:46.668Z,1.70
2017-09-11T02:54:16.069Z,2.10
2017-09-11T02:56:44.450Z,1.50
2017-09-11T02:59:12.971Z,1.20
2017-09-11T03:01:41.387Z,1.70
2017-09-11T03:04:09.775Z,1.37
2017-09-11T03:06:38.914Z,2.10
2017-09-11T03:09:07.444Z,1.90
2017-09-11T03:11:36.568Z,0.83
2017-09-11T03:14:04.944Z,1.57
2017-09-11T03:16:33.398Z,1.00
2017-09-11T03:19:01.792Z,1.70
2017-09-11T03:21:30.980Z,2.60
2017-09-11T03:23:59.809Z,1.27
2017-09-11T03:26:28.182Z,1.67
2017-09-11T03:28:56.622Z,2.10
2017-09-11T03:31:25.942Z,1.40
2017-09-11T03:33:55.533Z,1.90
2017-09-11T03:36:24.662Z,2.13
2017-09-11T03:38:53.302Z,2.30
2017-09-11T03:41:22.402Z,2.07
2017-09-11T03:43:50.774Z,1.40
2017-09-11T03:46:19.568Z,1.87
2017-09-11T03:48:47.938Z,2.00
2017-09-11T03:51:16.322Z,2.30
2017-09-11T03:53:45.083Z,1.43
2017-09-11T03:56:13.443Z,1.90
2017-09-11T03:58:42.207Z,2.27
2017-09-11T04:01:11.144Z,2.30
2017-09-11T04:03:39.555Z,2.77
2017-09-11T04:06:07.913Z,2.00
2017-09-11T04:08:36.532Z,1.17
2017-09-11T04:11:05.773Z,1.37
2017-09-11T04:13:34.185Z,2.03
2017-09-11T04:16:02.663Z,1.80
2017-09-11T04:18:31.521Z,2.00
2017-09-11T04:20:59.902Z,1.20
2017-09-11T04:23:28.588Z,2.40
2017-09-11T04:25:57.041Z,2.10
2017-09-11T04:28:25.389Z,2.43
2017-09-11T04:30:53.920Z,1.70
2017-09-11T04:33:22.295Z,3.00
2017-09-11T04:35:50.686Z,2.97
2017-09-11T04:38:19.418Z,2.80
2017-09-11T04:40:47.828Z,2.27
2017-09-11T04:43:16.248Z,1.90
2017-09-11T04:45:44.871Z,2.90
2017-09-11T04:48:14.081Z,3.00
2017-09-11T04:50:42.458Z,3.30
2017-09-11T04:53:11.618Z,2.67
2017-09-11T04:55:40.000Z,2.97
2017-09-11T04:58:08.373Z,2.70
2017-09-11T05:00:36.986Z,1.40
2017-09-11T05:03:06.437Z,2.10
2017-09-11T05:05:34.847Z,2.60
2017-09-11T05:08:04.573Z,1.40
2017-09-11T05:10:33.714Z,3.00
2017-09-11T05:13:02.361Z,1.80
2017-09-11T05:15:31.751Z,2.60
2017-09-11T05:18:00.162Z,1.33
2017-09-11T05:20:28.554Z,2.60
2017-09-11T05:22:57.414Z,3.00
2017-09-11T05:25:25.841Z,2.00
2017-09-11T05:27:54.333Z,2.67
2017-09-11T05:30:22.946Z,3.23
2017-09-11T05:32:52.093Z,1.20
2017-09-11T05:35:20.519Z,3.30
2017-09-11T05:37:49.195Z,2.97
2017-09-11T05:40:17.611Z,1.90
2017-09-11T05:42:46.076Z,1.97
2017-09-11T05:45:15.563Z,2.07
2017-09-11T05:47:43.940Z,2.50
2017-09-11T05:50:12.511Z,3.80
2017-09-11T05:52:41.225Z,2.00
2017-09-11T05:55:10.422Z,2.00
2017-09-11T05:57:39.594Z,2.00
2017-09-11T06:00:08.146Z,1.33
2017-09-11T06:02:36.644Z,1.23
2017-09-11T06:05:05.321Z,2.90
2017-09-11T06:07:33.744Z,2.63
2017-09-11T06:10:02.150Z,1.40
2017-09-11T06:12:30.507Z,1.43
2017-09-11T06:14:59.747Z,2.23
2017-09-11T06:17:28.163Z,1.93
2017-09-11T06:19:56.547Z,3.17
2017-09-11T06:22:25.423Z,2.10
2017-09-11T06:24:54.610Z,2.33
2017-09-11T06:27:23.332Z,3.10
2017-09-11T06:29:51.824Z,1.90
2017-09-11T06:32:20.284Z,1.37
2017-09-11T06:34:48.764Z,1.50
2017-09-11T06:37:17.968Z,2.00
2017-09-11T06:39:46.397Z,2.07
2017-09-11T06:42:14.832Z,1.20
2017-09-11T06:44:43.300Z,1.17
2017-09-11T06:47:11.693Z,2.70
2017-09-11T06:49:40.267Z,1.60
2017-09-11T06:52:09.684Z,1.60
2017-09-11T06:54:38.841Z,3.00
2017-09-11T06:57:07.231Z,1.50
2017-09-11T06:59:36.112Z,1.80
2017-09-11T07:02:04.533Z,2.77
2017-09-11T07:04:33.031Z,2.17
2017-09-11T07:07:01.604Z,2.33
2017-09-11T07:09:30.861Z,2.43
2017-09-11T07:12:11.890Z,1.90
2017-09-11T07:14:40.345Z,1.90
2017-09-11T07:17:09.510Z,2.30
2017-09-11T07:19:39.081Z,2.23
2017-09-11T07:22:07.459Z,2.30
2017-09-11T07:24:35.951Z,2.10
2017-09-11T07:27:05.845Z,1.23
2017-09-11T07:29:34.272Z,1.43
2017-09-11T07:32:02.748Z,1.80
2017-09-11T07:34:31.285Z,1.33
2017-09-11T07:37:00.438Z,1.27
2017-09-11T07:39:29.018Z,1.90
2017-09-11T07:41:57.599Z,1.23
2017-09-11T07:44:26.754Z,1.27
2017-09-11T07:46:55.923Z,1.43
2017-09-11T07:49:24.695Z,1.53
2017-09-11T07:51:57.052Z,1.27
2017-09-11T07:54:25.767Z,1.63
2017-09-11T07:56:54.915Z,1.60
2017-09-11T07:59:23.302Z,2.17
2017-09-11T08:01:52.700Z,1.50
2017-09-11T08:04:21.140Z,1.10
2017-09-11T08:06:49.569Z,1.67
2017-09-11T08:09:18.392Z,1.53
2017-09-11T08:11:46.898Z,1.50
2017-09-11T08:14:15.280Z,1.03
2017-09-11T08:16:43.926Z,2.00
2017-09-11T08:19:12.309Z,2.00
2017-09-11T08:21:40.900Z,1.23
2017-09-11T08:24:09.864Z,1.83
2017-09-11T08:26:38.242Z,1.23
2017-09-11T08:29:07.018Z,1.20
2017-09-11T08:31:35.439Z,1.17
2017-09-11T08:34:04.592Z,2.10
2017-09-11T08:36:32.965Z,2.30
2017-09-11T08:39:01.389Z,2.40
2017-09-11T08:41:29.776Z,2.03
2017-09-11T08:43:58.930Z,1.80
2017-09-11T08:46:27.445Z,1.10
2017-09-11T08:48:55.865Z,2.10
2017-09-11T08:51:24.254Z,1.93
2017-09-11T08:53:52.865Z,1.33
2017-09-11T08:56:21.378Z,2.70
2017-09-11T08:58:49.810Z,2.10
2017-09-11T09:01:18.662Z,2.33
2017-09-11T09:03:48.820Z,2.70
2017-09-11T09:06:17.271Z,2.13
2017-09-11T09:08:45.735Z,2.90
2017-09-11T09:11:15.516Z,2.70
2017-09-11T09:13:43.901Z,2.20
2017-09-11T09:16:12.679Z,2.60
2017-09-11T09:18:41.851Z,3.77
2017-09-11T09:21:10.232Z,3.93
2017-09-11T09:23:38.669Z,4.80
2017-09-11T09:26:07.041Z,4.70
2017-09-11T09:28:35.533Z,5.87
2017-09-11T09:31:05.242Z,4.10
2017-09-11T09:33:33.705Z,3.70
2017-09-11T09:36:02.097Z,4.80
2017-09-11T09:38:31.414Z,3.30
2017-09-11T09:41:00.949Z,2.63
2017-09-11T09:43:29.335Z,1.03
2017-09-11T09:45:57.776Z,1.60
2017-09-11T09:48:26.182Z,1.90
2017-09-11T09:50:54.570Z,1.10
2017-09-11T09:53:23.012Z,1.53
2017-09-11T09:55:51.481Z,1.27
2017-09-11T09:58:21.430Z,0.93
2017-09-11T10:00:50.011Z,1.10
2017-09-11T10:03:18.381Z,0.90
2017-09-11T10:05:46.756Z,1.00
2017-09-11T10:08:15.401Z,1.53
2017-09-11T10:10:43.809Z,1.50
2017-09-11T10:13:13.245Z,1.03
2017-09-11T10:15:41.641Z,1.20
2017-09-11T10:18:10.055Z,1.10
2017-09-11T10:20:39.334Z,1.30
2017-09-11T10:23:07.764Z,1.10
2017-09-11T10:25:36.191Z,0.73
2017-09-11T10:28:05.426Z,1.20
2017-09-11T10:30:33.902Z,0.50
2017-09-11T10:33:03.271Z,0.80
2017-09-11T10:35:32.415Z,0.70
2017-09-11T10:38:00.962Z,1.80
2017-09-11T10:40:30.254Z,0.93
2017-09-11T10:42:58.659Z,0.77
2017-09-11T10:45:27.174Z,1.00
2017-09-11T10:47:55.613Z,1.20
2017-09-11T10:50:24.313Z,1.20
2017-09-11T10:52:52.901Z,1.30
2017-09-11T10:55:21.399Z,0.90
2017-09-11T10:57:50.738Z,0.90
2017-09-11T11:00:19.315Z,1.10
2017-09-11T11:02:47.789Z,0.90
2017-09-11T11:05:16.215Z,0.80
2017-09-11T11:07:45.559Z,1.00
2017-09-11T11:10:13.971Z,0.97
2017-09-11T11:12:42.405Z,0.80
2017-09-11T11:15:11.002Z,0.77
2017-09-11T11:17:39.405Z,1.17
2017-09-11T11:20:09.029Z,0.63
2017-09-11T11:22:37.769Z,0.93
2017-09-11T11:25:06.251Z,0.60
2017-09-11T11:27:34.644Z,1.10
2017-09-11T11:30:03.088Z,0.70
2017-09-11T11:32:31.540Z,0.50
2017-09-11T11:35:00.700Z,0.80
2017-09-11T11:37:30.219Z,1.00
2017-09-11T11:39:59.559Z,0.60
2017-09-11T11:42:28.738Z,0.60
2017-09-11T11:44:57.891Z,1.10
2017-09-11T11:47:26.308Z,0.83
2017-09-11T11:49:55.539Z,0.87
2017-09-11T11:52:24.006Z,0.73
2017-09-11T11:54:53.650Z,0.93
2017-09-11T11:57:22.944Z,1.13
2017-09-11T11:59:51.812Z,0.70
2017-09-11T12:02:20.561Z,1.23
2017-09-11T12:04:49.691Z,1.00
2017-09-11T12:07:19.214Z,1.10
2017-09-11T12:09:50.958Z,0.90
2017-09-11T12:12:20.481Z,0.60
2017-09-11T12:14:50.637Z,0.90
2017-09-11T12:17:21.197Z,0.70
2017-09-11T12:19:51.957Z,0.93
2017-09-11T12:22:20.439Z,1.20
2017-09-11T12:24:52.285Z,1.10
2017-09-11T12:27:21.751Z,1.00
2017-09-11T12:29:50.169Z,0.97
2017-09-11T12:32:19.446Z,0.63
2017-09-11T12:34:49.578Z,1.13
2017-09-11T12:37:18.037Z,1.20
2017-09-11T12:39:46.458Z,1.23
2017-09-11T12:42:14.989Z,1.07
2017-09-11T12:44:43.409Z,1.37
2017-09-11T12:47:12.609Z,1.30
2017-09-11T12:49:42.155Z,1.10
2017-09-11T12:52:10.611Z,1.13
2017-09-11T12:54:39.036Z,0.97
2017-09-11T12:57:08.205Z,1.10
2017-09-11T12:59:36.754Z,1.00
2017-09-11T13:02:05.969Z,1.23
2017-09-11T13:04:34.742Z,1.00
2017-09-11T13:07:03.152Z,1.23
2017-09-11T13:09:31.520Z,1.50
2017-09-11T13:12:00.162Z,1.20
2017-09-11T13:14:29.518Z,1.23
2017-09-11T13:16:57.931Z,1.10
2017-09-11T13:19:27.038Z,1.00
2017-09-11T13:21:55.502Z,1.50
2017-09-11T13:24:23.966Z,1.43
2017-09-11T13:26:54.820Z,1.73
2017-09-11T13:29:23.282Z,1.20
2017-09-11T13:31:51.758Z,0.90
2017-09-11T13:34:21.124Z,0.87
2017-09-11T13:36:50.506Z,1.90
2017-09-11T13:39:19.779Z,1.80
2017-09-11T13:41:49.460Z,1.17
2017-09-11T13:44:17.933Z,1.53
2017-09-11T13:46:46.352Z,1.50
2017-09-11T13:49:14.849Z,1.30
2017-09-11T13:51:43.277Z,1.00
2017-09-11T13:54:11.715Z,1.77
2017-09-11T13:56:40.950Z,1.53
2017-09-11T13:59:09.393Z,1.47
2017-09-11T14:01:38.036Z,1.57
2017-09-11T14:04:06.686Z,1.23
2017-09-11T14:06:35.893Z,1.50
2017-09-11T14:09:04.350Z,1.27
2017-09-11T14:11:33.778Z,1.13
2017-09-11T14:14:02.336Z,1.23
2017-09-11T14:16:32.317Z,1.60
2017-09-11T14:19:01.998Z,1.30
2017-09-11T14:21:30.865Z,1.37
2017-09-11T14:23:59.358Z,0.80
2017-09-11T14:26:28.716Z,0.90
2017-09-11T14:28:57.284Z,1.43
2017-09-11T14:31:26.472Z,1.47
2017-09-11T14:33:54.946Z,1.53
2017-09-11T14:36:24.875Z,1.37
2017-09-11T14:38:53.294Z,1.00
2017-09-11T14:41:22.524Z,1.00
2017-09-11T14:43:51.717Z,1.37
2017-09-11T14:46:20.170Z,1.20
2017-09-11T14:48:49.461Z,0.90
2017-09-11T14:51:18.710Z,1.20
2017-09-11T14:53:47.104Z,1.13
2017-09-11T14:56:15.856Z,0.70
2017-09-11T14:58:44.390Z,1.70
2017-09-11T15:01:13.483Z,1.33
2017-09-11T15:03:43.243Z,0.97
2017-09-11T15:06:11.745Z,1.37
2017-09-11T15:08:40.211Z,1.13
2017-09-11T15:11:08.844Z,1.83
2017-09-11T15:13:37.310Z,1.50
2017-09-11T15:16:06.031Z,1.43
2017-09-11T15:18:38.208Z,1.30
2017-09-11T15:21:07.393Z,1.87
2017-09-11T15:23:38.071Z,1.30
2017-09-11T15:26:06.532Z,1.30
2017-09-11T15:28:34.956Z,1.27
2017-09-11T15:31:04.887Z,1.17
2017-09-11T15:33:34.370Z,1.40
2017-09-11T15:36:03.559Z,1.80
2017-09-11T15:38:34.262Z,1.33
2017-09-11T15:41:02.876Z,0.80
2017-09-11T15:43:31.253Z,0.97
2017-09-11T15:45:59.974Z,1.67
2017-09-11T15:48:29.653Z,1.10
2017-09-11T15:50:59.215Z,1.60
2017-09-11T15:53:28.524Z,1.23
2017-09-11T15:55:56.976Z,1.20
2017-09-11T15:58:25.362Z,1.63
2017-09-11T16:00:54.501Z,1.00
2017-09-11T16:03:23.140Z,1.43
2017-09-11T16:05:52.342Z,1.20
2017-09-11T16:08:22.416Z,1.00
2017-09-11T16:10:51.665Z,1.27
2017-09-11T16:13:20.131Z,1.43
2017-09-11T16:15:48.568Z,1.17
2017-09-11T16:18:17.389Z,1.30
2017-09-11T16:20:46.572Z,1.40
2017-09-11T16:23:14.971Z,1.30
2017-09-11T16:25:43.654Z,0.50
2017-09-11T16:28:12.184Z,0.90
2017-09-11T16:30:40.732Z,0.73
2017-09-11T16:33:09.451Z,1.30
2017-09-11T16:35:38.447Z,0.70
2017-09-11T16:38:06.912Z,0.80
2017-09-11T16:40:35.478Z,0.77
2017-09-11T16:43:05.261Z,1.13
2017-09-11T16:45:33.714Z,1.07
2017-09-11T16:48:02.186Z,0.70
2017-09-11T16:50:30.577Z,0.83
2017-09-11T16:52:58.983Z,0.80
2017-09-11T16:55:27.414Z,1.10
2017-09-11T16:57:55.794Z,0.83
2017-09-11T17:00:24.235Z,1.13
2017-09-11T17:02:53.464Z,1.00
2017-09-11T17:05:22.223Z,1.13
2017-09-11T17:07:50.605Z,1.03
2017-09-11T17:10:19.072Z,1.00
2017-09-11T17:12:48.276Z,0.90
2017-09-11T17:15:17.468Z,1.20
2017-09-11T17:17:46.165Z,1.50
2017-09-11T17:20:15.362Z,1.47
2017-09-11T17:22:46.234Z,1.30
2017-09-11T17:25:15.909Z,0.90
2017-09-11T17:27:45.599Z,0.70
2017-09-11T17:30:13.986Z,0.80
2017-09-11T17:32:42.732Z,1.00
2017-09-11T17:35:11.575Z,0.93
2017-09-11T17:37:40.031Z,1.10
2017-09-11T17:40:08.799Z,0.87
2017-09-11T17:42:37.214Z,1.00
2017-09-11T17:45:05.702Z,0.90
2017-09-11T17:47:34.279Z,1.00
2017-09-11T17:50:02.794Z,1.73
2017-09-11T17:52:31.412Z,1.10
2017-09-11T17:55:00.031Z,1.00
2017-09-11T17:57:28.471Z,0.73
2017-09-11T17:59:56.868Z,1.30
2017-09-11T18:02:25.513Z,1.93
2017-09-11T18:04:53.983Z,1.77
2017-09-11T18:07:22.459Z,1.30
2017-09-11T18:09:51.091Z,1.10
2017-09-11T18:12:19.628Z,0.87
2017-09-11T18:14:48.832Z,1.00
2017-09-11T18:17:17.388Z,1.20
2017-09-11T18:19:45.815Z,0.80
2017-09-11T18:22:14.265Z,0.97
2017-09-11T18:24:43.614Z,1.17
2017-09-11T18:27:12.045Z,1.13
2017-09-11T18:29:40.637Z,1.00
2017-09-11T18:32:09.386Z,1.10
2017-09-11T18:34:37.814Z,1.20
2017-09-11T18:37:06.237Z,1.63
2017-09-11T18:39:34.729Z,1.20
2017-09-11T18:42:03.181Z,1.03
2017-09-11T18:44:31.617Z,1.50
2017-09-11T18:47:00.977Z,1.83
2017-09-11T18:49:29.369Z,1.70
2017-09-11T18:51:57.783Z,1.83
2017-09-11T18:54:27.755Z,1.27
2017-09-11T18:56:56.115Z,0.73
2017-09-11T18:59:24.489Z,1.70
2017-09-11T19:01:53.225Z,1.30
2017-09-11T19:04:21.629Z,1.40
2017-09-11T19:06:50.032Z,1.80
2017-09-11T19:09:18.440Z,1.63
2017-09-11T19:11:47.504Z,1.37
2017-09-11T19:14:15.878Z,2.10
2017-09-11T19:16:44.297Z,1.97
2017-09-11T19:19:12.763Z,1.50
2017-09-11T19:21:41.181Z,1.40
2017-09-11T19:24:10.357Z,2.00
2017-09-11T19:26:38.771Z,1.80
2017-09-11T19:29:07.185Z,1.50
2017-09-11T19:31:36.154Z,1.77
2017-09-11T19:34:04.571Z,2.40
2017-09-11T19:36:32.980Z,2.00
2017-09-11T19:39:01.401Z,1.93
2017-09-11T19:41:29.799Z,2.57
2017-09-11T19:43:59.093Z,2.37
2017-09-11T19:46:27.604Z,1.73
2017-09-11T19:48:55.988Z,1.77
2017-09-11T19:51:25.201Z,1.77
2017-09-11T19:53:54.469Z,1.80
2017-09-11T19:56:22.873Z,2.63
2017-09-11T19:58:51.403Z,1.50
2017-09-11T20:01:20.236Z,2.30
2017-09-11T20:03:48.597Z,2.00
2017-09-11T20:06:16.984Z,1.70
2017-09-11T20:08:45.582Z,1.33
2017-09-11T20:11:14.038Z,2.13
2017-09-11T20:13:42.539Z,2.23
2017-09-11T20:16:11.105Z,2.80
2017-09-11T20:18:39.533Z,2.00
2017-09-11T20:21:08.115Z,1.40
2017-09-11T20:23:36.538Z,1.57
2017-09-11T20:26:04.962Z,1.90
2017-09-11T20:28:34.104Z,1.77
2017-09-11T20:31:02.578Z,1.70
2017-09-11T20:33:32.096Z,2.30
2017-09-11T20:36:00.487Z,1.80
2017-09-11T20:38:29.657Z,1.67
2017-09-11T20:40:58.042Z,1.77
2017-09-11T20:43:26.432Z,1.60
2017-09-11T20:45:55.852Z,1.97
2017-09-11T20:48:24.277Z,1.63
2017-09-11T20:50:52.672Z,2.50
2017-09-11T20:53:21.196Z,2.13
2017-09-11T20:55:49.576Z,1.43
2017-09-11T20:58:17.980Z,2.03
2017-09-11T21:00:47.233Z,1.87
2017-09-11T21:03:15.620Z,1.47
2017-09-11T21:05:44.051Z,2.83
2017-09-11T21:08:12.693Z,1.63
2017-09-11T21:10:41.389Z,2.13
2017-09-11T21:13:10.019Z,1.70
2017-09-11T21:15:38.577Z,1.57
2017-09-11T21:18:07.037Z,1.40
2017-09-11T21:20:35.447Z,1.47
2017-09-11T21:23:04.696Z,1.90
2017-09-11T21:25:33.075Z,1.70
2017-09-11T21:28:01.450Z,1.30
2017-09-11T21:30:29.862Z,1.33
2017-09-11T21:32:59.034Z,1.70
2017-09-11T21:35:27.962Z,1.87
2017-09-11T21:37:56.621Z,2.57
2017-09-11T21:40:25.003Z,1.60
2017-09-11T21:42:53.412Z,1.83
2017-09-11T21:45:22.019Z,1.20
2017-09-11T21:47:50.456Z,2.10
2017-09-11T21:50:18.877Z,1.20
2017-09-11T21:52:47.312Z,2.20
2017-09-11T21:55:15.680Z,1.50
2017-09-11T21:57:44.064Z,1.93
2017-09-11T22:00:13.052Z,1.37
2017-09-11T22:02:41.435Z,2.10
2017-09-11T22:05:09.830Z,2.97
2017-09-11T22:07:39.309Z,1.50
2017-09-11T22:10:07.675Z,1.90
2017-09-11T22:12:36.109Z,1.57
2017-09-11T22:15:04.773Z,1.87
2017-09-11T22:17:33.945Z,1.77
2017-09-11T22:20:02.310Z,2.80
2017-09-11T22:22:30.728Z,2.33
2017-09-11T22:24:59.276Z,3.20
2017-09-11T22:27:27.685Z,2.90
2017-09-11T22:29:57.048Z,2.40
2017-09-11T22:32:25.438Z,2.57
2017-09-11T22:34:53.815Z,2.80
2017-09-11T22:37:22.502Z,1.57
2017-09-11T22:39:50.946Z,2.50
2017-09-11T22:42:19.346Z,1.50
2017-09-11T22:44:47.789Z,2.33
2017-09-11T22:47:16.916Z,1.73
2017-09-11T22:49:45.624Z,2.60
2017-09-11T22:52:14.209Z,1.77
2017-09-11T22:54:42.580Z,1.40
2017-09-11T22:57:10.953Z,1.90
2017-09-11T22:59:39.384Z,1.80
2017-09-11T23:02:08.541Z,1.90
2017-09-11T23:04:36.898Z,1.27
2017-09-11T23:07:05.317Z,2.00
2017-09-11T23:09:33.713Z,2.70
2017-09-11T23:12:02.910Z,1.90
2017-09-11T23:14:32.125Z,2.00
2017-09-11T23:17:00.498Z,1.70
2017-09-11T23:19:28.861Z,1.43
2017-09-11T23:21:58.177Z,1.50
2017-09-11T23:24:26.570Z,2.27
2017-09-11T23:26:55.302Z,1.63
2017-09-11T23:29:23.884Z,1.60
2017-09-11T23:31:52.262Z,2.00
2017-09-11T23:34:20.620Z,2.50
2017-09-11T23:36:49.343Z,1.20
2017-09-11T23:39:18.251Z,1.53
2017-09-11T23:41:47.384Z,1.63
2017-09-11T23:44:15.844Z,2.37
2017-09-11T23:46:44.216Z,0.93
2017-09-11T23:49:13.379Z,2.00
2017-09-11T23:51:41.855Z,1.50
2017-09-11T23:54:10.233Z,1.70
2017-09-11T23:56:38.586Z,1.60
2017-09-11T23:59:07.135Z,1.37
